Time;durP1;ratioP1;P1;durP2;ratioP2;P2;SDS_P1;SDS_P2;PMS_P1;PMS_P2;Temp;Humidity;BMP_temperature;BMP_pressure;BME280_temperature;BME280_humidity;BME280_pressure;Samples;Min_cycle;Max_cycle;Signal;HPM_P1;HPM_P2
2024/04/04 00:00:19;;;;;;;4.53;4.13;;;;;;;;;;5076015;28;20696;-70
2024/04/04 00:02:45;;;;;;;5.90;4.77;;;;;;;;;;5074421;28;20455;-69
2024/04/04 00:05:11;;;;;;;4.70;4.30;;;;;;;;;;5089389;28;20225;-69
2024/04/04 00:07:38;;;;;;;4.20;3.80;;;;;;;;;;5075305;28;20452;-70
2024/04/04 00:10:03;;;;;;;5.00;4.60;;;;;;;;;;5074245;28;20201;-67
2024/04/04 00:12:30;;;;;;;8.60;4.80;;;;;;;;;;5076307;28;20448;-69
2024/04/04 00:14:57;;;;;;;4.60;4.20;;;;;;;;;;5077555;28;20225;-70
2024/04/04 00:17:23;;;;;;;5.60;4.47;;;;;;;;;;5072695;28;20541;-71
2024/04/04 00:19:49;;;;;;;7.77;4.30;;;;;;;;;;5077393;28;20535;-69
2024/04/04 00:22:16;;;;;;;6.23;4.73;;;;;;;;;;5072277;28;21310;-71
2024/04/04 00:24:41;;;;;;;5.57;4.73;;;;;;;;;;5072716;28;20214;-69
2024/04/04 00:27:08;;;;;;;2.90;2.70;;;;;;;;;;5069309;28;20808;-70
2024/04/04 00:29:34;;;;;;;4.73;4.43;;;;;;;;;;5069792;28;20258;-69
2024/04/04 00:32:02;;;;;;;4.73;4.43;;;;;;;;;;5073607;28;20447;-66
2024/04/04 00:34:27;;;;;;;4.53;4.10;;;;;;;;;;5071408;28;20214;-70
2024/04/04 00:36:53;;;;;;;3.53;3.33;;;;;;;;;;5070245;28;20474;-68
2024/04/04 00:39:19;;;;;;;11.93;4.60;;;;;;;;;;5070155;28;20316;-69
2024/04/04 00:41:45;;;;;;;4.73;4.30;;;;;;;;;;5065894;28;20456;-70
2024/04/04 00:44:11;;;;;;;7.03;4.63;;;;;;;;;;5070315;28;20210;-71
2024/04/04 00:46:37;;;;;;;4.50;4.10;;;;;;;;;;5067272;28;20857;-70
2024/04/04 00:49:05;;;;;;;5.80;4.90;;;;;;;;;;5069219;28;20206;-69
2024/04/04 00:51:32;;;;;;;4.50;4.10;;;;;;;;;;5073054;28;20474;-69
2024/04/04 00:53:57;;;;;;;4.57;4.20;;;;;;;;;;5069722;28;20478;-71
2024/04/04 00:56:24;;;;;;;5.37;3.90;;;;;;;;;;5068765;28;20459;-68
2024/04/04 00:58:50;;;;;;;4.73;4.20;;;;;;;;;;5068931;28;20907;-71
2024/04/04 01:01:16;;;;;;;4.57;4.03;;;;;;;;;;5072855;28;20459;-72
2024/04/04 01:03:42;;;;;;;4.80;4.50;;;;;;;;;;5074617;28;20213;-68
2024/04/04 01:06:09;;;;;;;5.20;4.73;;;;;;;;;;5075125;28;20455;-70
2024/04/04 01:08:35;;;;;;;6.07;4.50;;;;;;;;;;5068163;28;20280;-70
2024/04/04 01:11:02;;;;;;;7.90;4.97;;;;;;;;;;5074783;28;20452;-70
2024/04/04 01:13:27;;;;;;;5.97;4.60;;;;;;;;;;5073518;28;20472;-70
2024/04/04 01:15:53;;;;;;;4.47;4.07;;;;;;;;;;5066841;28;20460;-70
2024/04/04 01:18:19;;;;;;;6.57;4.33;;;;;;;;;;5073171;28;20246;-68
2024/04/04 01:20:46;;;;;;;5.33;4.83;;;;;;;;;;5072436;28;20499;-68
2024/04/04 01:23:12;;;;;;;4.63;4.23;;;;;;;;;;5075091;28;20237;-69
2024/04/04 01:25:41;;;;;;;4.77;4.10;;;;;;;;;;5071376;28;20452;-68
2024/04/04 01:28:07;;;;;;;5.47;4.80;;;;;;;;;;5067367;28;20478;-70
2024/04/04 01:30:33;;;;;;;4.00;3.40;;;;;;;;;;5071656;28;20447;-71
2024/04/04 01:32:58;;;;;;;5.80;4.30;;;;;;;;;;5072900;28;20205;-71
2024/04/04 01:35:25;;;;;;;4.90;4.50;;;;;;;;;;5069569;28;20462;-69
2024/04/04 01:37:51;;;;;;;4.90;4.30;;;;;;;;;;5071774;28;20214;-71
2024/04/04 01:40:17;;;;;;;5.00;4.03;;;;;;;;;;5067307;28;20514;-69
2024/04/04 01:42:44;;;;;;;5.80;4.63;;;;;;;;;;5072953;28;20210;-69
2024/04/04 01:45:10;;;;;;;5.30;4.80;;;;;;;;;;5071135;28;20456;-69
2024/04/04 01:47:36;;;;;;;9.63;4.47;;;;;;;;;;5073466;28;20456;-70
2024/04/04 01:50:03;;;;;;;8.73;4.60;;;;;;;;;;5075735;28;20474;-68
2024/04/04 01:52:31;;;;;;;6.70;4.07;;;;;;;;;;5072426;28;20202;-70
2024/04/04 01:54:57;;;;;;;4.90;4.50;;;;;;;;;;5074418;28;20479;-70
2024/04/04 01:57:22;;;;;;;4.60;4.30;;;;;;;;;;5068400;28;20537;-70
2024/04/04 01:59:53;;;;;;;7.27;6.40;;;;;;;;;;5068037;28;20479;-69
2024/04/04 02:02:18;;;;;;;4.07;3.70;;;;;;;;;;5075413;28;20670;-69
2024/04/04 02:04:45;;;;;;;4.60;4.10;;;;;;;;;;5072336;28;20460;-68
2024/04/04 02:07:10;;;;;;;4.73;4.40;;;;;;;;;;5070691;28;20210;-71
2024/04/04 02:09:37;;;;;;;6.60;4.37;;;;;;;;;;5074910;28;20456;-68
2024/04/04 02:12:03;;;;;;;5.47;3.50;;;;;;;;;;5077121;28;20209;-69
2024/04/04 02:14:29;;;;;;;4.77;4.10;;;;;;;;;;5081106;28;20521;-69
2024/04/04 02:16:56;;;;;;;4.83;4.33;;;;;;;;;;5076400;28;20202;-70
2024/04/04 02:19:22;;;;;;;7.97;4.70;;;;;;;;;;5076457;28;20507;-68
2024/04/04 02:21:48;;;;;;;6.17;4.70;;;;;;;;;;5078435;28;20483;-70
2024/04/04 02:24:14;;;;;;;5.00;4.47;;;;;;;;;;5075120;28;20463;-70
2024/04/04 02:26:40;;;;;;;7.67;3.80;;;;;;;;;;5073840;28;20214;-71
2024/04/04 02:29:06;;;;;;;4.80;4.50;;;;;;;;;;5078343;28;20440;-69
2024/04/04 02:31:32;;;;;;;9.40;5.70;;;;;;;;;;5066578;28;20309;-68
2024/04/04 02:34:00;;;;;;;5.60;4.53;;;;;;;;;;5072338;28;20933;-69
2024/04/04 02:36:28;;;;;;;4.80;4.43;;;;;;;;;;5081926;28;20210;-69
2024/04/04 02:38:54;;;;;;;5.53;4.57;;;;;;;;;;5080237;28;20499;-69
2024/04/04 02:41:20;;;;;;;4.33;3.60;;;;;;;;;;5074257;28;20456;-71
2024/04/04 02:43:46;;;;;;;7.77;4.90;;;;;;;;;;5075934;28;20513;-71
2024/04/04 02:46:12;;;;;;;4.77;4.37;;;;;;;;;;5075852;28;20202;-71
2024/04/04 02:48:39;;;;;;;5.60;5.10;;;;;;;;;;5076552;28;20486;-72
2024/04/04 02:51:07;;;;;;;5.17;4.77;;;;;;;;;;5072024;28;20216;-71
2024/04/04 02:53:33;;;;;;;4.93;4.53;;;;;;;;;;5073201;28;20890;-69
2024/04/04 02:55:59;;;;;;;4.70;4.30;;;;;;;;;;5075476;28;20468;-70
2024/04/04 02:58:26;;;;;;;6.10;4.23;;;;;;;;;;5076542;28;20490;-69
2024/04/04 03:00:52;;;;;;;10.40;5.03;;;;;;;;;;5077939;28;20491;-69
2024/04/04 03:03:19;;;;;;;6.70;5.10;;;;;;;;;;5076389;28;20444;-69
2024/04/04 03:05:45;;;;;;;6.10;5.00;;;;;;;;;;5074055;28;20214;-66
2024/04/04 03:08:14;;;;;;;4.77;4.37;;;;;;;;;;5073365;28;20463;-69
2024/04/04 03:10:39;;;;;;;6.13;4.70;;;;;;;;;;5074468;28;20527;-69
2024/04/04 03:13:06;;;;;;;5.30;4.53;;;;;;;;;;5070084;28;20472;-68
2024/04/04 03:15:32;;;;;;;5.23;4.37;;;;;;;;;;5073507;28;20232;-69
2024/04/04 03:17:58;;;;;;;5.20;3.90;;;;;;;;;;5074235;28;20444;-69
2024/04/04 03:20:24;;;;;;;4.77;4.43;;;;;;;;;;5078566;28;20233;-69
2024/04/04 03:22:50;;;;;;;4.30;4.00;;;;;;;;;;5083005;28;20528;-69
2024/04/04 03:25:17;;;;;;;4.93;4.30;;;;;;;;;;5075878;28;20209;-65
2024/04/04 03:27:44;;;;;;;6.03;4.10;;;;;;;;;;5079279;28;20448;-68
2024/04/04 03:30:10;;;;;;;8.83;4.60;;;;;;;;;;5081716;28;20448;-70
2024/04/04 03:32:37;;;;;;;5.90;4.23;;;;;;;;;;5078671;28;20745;-68
2024/04/04 03:35:02;;;;;;;4.67;4.20;;;;;;;;;;5083835;28;20452;-69
2024/04/04 03:37:29;;;;;;;5.70;3.83;;;;;;;;;;5078073;28;20463;-67
2024/04/04 03:39:56;;;;;;;4.77;4.30;;;;;;;;;;5076675;28;20570;-69
2024/04/04 03:42:23;;;;;;;5.17;4.67;;;;;;;;;;5074961;28;21012;-68
2024/04/04 03:44:51;;;;;;;5.80;4.70;;;;;;;;;;5079738;28;20478;-68
2024/04/04 03:47:16;;;;;;;4.73;4.30;;;;;;;;;;5077840;28;20448;-70
2024/04/04 03:49:43;;;;;;;4.50;4.20;;;;;;;;;;5075254;28;20478;-68
2024/04/04 03:52:08;;;;;;;5.07;4.53;;;;;;;;;;5075531;28;20210;-69
2024/04/04 03:54:35;;;;;;;5.10;4.70;;;;;;;;;;5072378;28;21163;-70
2024/04/04 03:57:00;;;;;;;4.83;4.33;;;;;;;;;;5077024;28;20214;-68
2024/04/04 03:59:28;;;;;;;4.40;4.10;;;;;;;;;;5078289;28;20521;-70
2024/04/04 04:01:57;;;;;;;4.90;4.47;;;;;;;;;;5070205;28;20263;-67
2024/04/04 04:04:24;;;;;;;9.50;4.50;;;;;;;;;;5078531;28;20464;-70
2024/04/04 04:06:49;;;;;;;7.10;4.37;;;;;;;;;;5079148;28;20451;-69
2024/04/04 04:09:16;;;;;;;5.60;4.67;;;;;;;;;;5076319;28;20483;-67
2024/04/04 04:11:42;;;;;;;6.00;4.20;;;;;;;;;;5073204;28;20259;-68
2024/04/04 04:14:09;;;;;;;9.20;4.97;;;;;;;;;;5080597;28;20451;-68
2024/04/04 04:16:36;;;;;;;10.03;4.83;;;;;;;;;;5075918;28;20456;-70
2024/04/04 04:19:02;;;;;;;9.43;5.23;;;;;;;;;;5079444;28;20620;-69
2024/04/04 04:21:28;;;;;;;5.73;4.17;;;;;;;;;;5074884;28;20562;-67
2024/04/04 04:23:57;;;;;;;4.53;4.17;;;;;;;;;;5074908;28;20754;-67
2024/04/04 04:26:22;;;;;;;5.23;4.67;;;;;;;;;;5074782;28;20210;-69
2024/04/04 04:28:49;;;;;;;6.43;4.50;;;;;;;;;;5078317;28;20454;-70
2024/04/04 04:31:22;;;;;;;4.70;4.30;;;;;;;;;;5075348;28;20201;-71
2024/04/04 04:33:50;;;;;;;6.63;4.73;;;;;;;;;;5067864;28;20449;-69
2024/04/04 04:36:15;;;;;;;5.00;4.67;;;;;;;;;;5075758;28;20452;-70
2024/04/04 04:38:41;;;;;;;6.00;4.87;;;;;;;;;;5074458;28;20870;-70
2024/04/04 04:41:08;;;;;;;5.63;4.63;;;;;;;;;;5071744;28;20247;-69
2024/04/04 04:43:34;;;;;;;4.67;4.23;;;;;;;;;;5074960;28;20477;-70
2024/04/04 04:46:00;;;;;;;9.53;4.80;;;;;;;;;;5068019;28;20480;-70
2024/04/04 04:48:26;;;;;;;7.20;4.60;;;;;;;;;;5075483;28;20456;-70
2024/04/04 04:50:53;;;;;;;4.70;4.20;;;;;;;;;;5075670;28;20210;-69
2024/04/04 04:53:19;;;;;;;7.50;4.57;;;;;;;;;;5075529;28;20765;-69
2024/04/04 04:55:46;;;;;;;4.80;4.23;;;;;;;;;;5071137;28;20451;-72
2024/04/04 04:58:13;;;;;;;6.40;4.40;;;;;;;;;;5069116;28;20494;-69
2024/04/04 05:00:38;;;;;;;5.37;4.40;;;;;;;;;;5073768;28;20481;-71
2024/04/04 05:03:05;;;;;;;5.30;4.50;;;;;;;;;;5071890;28;20805;-70
2024/04/04 05:05:30;;;;;;;5.43;4.93;;;;;;;;;;5071312;28;20222;-70
2024/04/04 05:07:58;;;;;;;4.60;4.30;;;;;;;;;;5065555;28;20449;-70
2024/04/04 05:10:24;;;;;;;5.53;3.77;;;;;;;;;;5073531;28;20212;-72
2024/04/04 05:12:50;;;;;;;7.30;5.70;;;;;;;;;;5071168;28;20452;-67
2024/04/04 05:15:16;;;;;;;5.23;3.80;;;;;;;;;;5071423;28;20205;-67
2024/04/04 05:17:42;;;;;;;5.03;4.30;;;;;;;;;;5071684;28;20826;-69
2024/04/04 05:20:11;;;;;;;4.83;4.43;;;;;;;;;;5073039;28;20290;-71
2024/04/04 05:22:37;;;;;;;5.90;3.90;;;;;;;;;;5078554;28;20456;-71
2024/04/04 05:25:04;;;;;;;5.07;3.97;;;;;;;;;;5079590;28;20463;-71
2024/04/04 05:27:31;;;;;;;7.33;5.10;;;;;;;;;;5083407;28;20482;-71
2024/04/04 05:30:04;;;;;;;9.37;4.50;;;;;;;;;;5077275;28;20953;-71
2024/04/04 05:32:30;;;;;;;5.47;3.67;;;;;;;;;;5065682;28;21134;-71
2024/04/04 05:34:56;;;;;;;7.50;4.00;;;;;;;;;;5070309;28;20887;-70
2024/04/04 05:37:22;;;;;;;6.27;4.10;;;;;;;;;;5073928;28;20460;-71
2024/04/04 05:39:48;;;;;;;5.43;3.70;;;;;;;;;;5071286;28;20229;-70
2024/04/04 05:42:16;;;;;;;5.23;3.93;;;;;;;;;;5073906;28;20511;-69
2024/04/04 05:44:41;;;;;;;5.40;3.60;;;;;;;;;;5074796;28;20239;-71
2024/04/04 05:47:08;;;;;;;4.50;4.10;;;;;;;;;;5074483;28;20451;-70
2024/04/04 05:49:34;;;;;;;4.30;3.90;;;;;;;;;;5072269;28;20241;-71
2024/04/04 05:52:01;;;;;;;4.53;4.03;;;;;;;;;;5078424;28;20451;-71
2024/04/04 05:54:27;;;;;;;4.57;3.50;;;;;;;;;;5073964;28;20486;-69
2024/04/04 05:56:53;;;;;;;3.80;3.60;;;;;;;;;;5078074;28;20459;-69
2024/04/04 05:59:21;;;;;;;7.07;3.83;;;;;;;;;;5082054;28;20477;-71
2024/04/04 06:01:47;;;;;;;5.50;4.17;;;;;;;;;;5072062;28;20469;-71
2024/04/04 06:04:13;;;;;;;4.07;3.67;;;;;;;;;;5080542;28;20452;-70
2024/04/04 06:06:41;;;;;;;5.70;3.83;;;;;;;;;;5079309;28;20490;-72
2024/04/04 06:09:07;;;;;;;4.27;3.93;;;;;;;;;;5077435;28;20259;-71
2024/04/04 06:11:33;;;;;;;8.13;3.30;;;;;;;;;;5071788;28;20463;-71
2024/04/04 06:13:59;;;;;;;3.20;2.90;;;;;;;;;;5074511;28;20209;-70
2024/04/04 06:16:27;;;;;;;3.90;2.73;;;;;;;;;;5076528;28;20458;-70
2024/04/04 06:18:52;;;;;;;5.67;3.10;;;;;;;;;;5077807;28;20867;-71
2024/04/04 06:21:19;;;;;;;3.10;2.80;;;;;;;;;;5080468;28;20488;-70
2024/04/04 06:23:44;;;;;;;4.00;3.33;;;;;;;;;;5079503;28;20209;-71
2024/04/04 06:26:11;;;;;;;6.17;3.20;;;;;;;;;;5078426;28;20517;-70
2024/04/04 06:28:36;;;;;;;3.83;3.10;;;;;;;;;;5080667;28;20214;-70
2024/04/04 06:31:03;;;;;;;5.30;3.53;;;;;;;;;;5081611;28;20468;-70
2024/04/04 06:33:30;;;;;;;3.50;3.10;;;;;;;;;;5074982;28;20218;-70
2024/04/04 06:35:56;;;;;;;3.47;3.07;;;;;;;;;;5084499;28;20462;-71
2024/04/04 06:38:22;;;;;;;8.43;3.47;;;;;;;;;;5077073;28;20460;-72
2024/04/04 06:40:48;;;;;;;4.53;3.17;;;;;;;;;;5077922;28;20464;-71
2024/04/04 06:43:14;;;;;;;4.63;3.80;;;;;;;;;;5074430;28;20572;-71
2024/04/04 06:45:40;;;;;;;5.47;3.43;;;;;;;;;;5078653;28;20448;-71
2024/04/04 06:48:06;;;;;;;3.50;3.20;;;;;;;;;;5078952;28;20672;-70
2024/04/04 06:50:34;;;;;;;5.70;3.77;;;;;;;;;;5083905;28;20451;-71
2024/04/04 06:53:01;;;;;;;3.70;3.40;;;;;;;;;;5079357;28;20800;-72
2024/04/04 06:55:28;;;;;;;3.10;2.80;;;;;;;;;;5081284;28;21329;-70
2024/04/04 06:57:54;;;;;;;4.93;3.37;;;;;;;;;;5079140;28;20452;-72
2024/04/04 07:00:20;;;;;;;4.10;3.70;;;;;;;;;;5081925;28;20515;-70
2024/04/04 07:02:46;;;;;;;7.90;4.00;;;;;;;;;;5079577;28;20201;-69
2024/04/04 07:05:12;;;;;;;3.90;3.60;;;;;;;;;;5076997;28;20461;-71
2024/04/04 07:07:39;;;;;;;4.23;3.83;;;;;;;;;;5082440;28;20546;-70
2024/04/04 07:10:07;;;;;;;5.43;4.70;;;;;;;;;;5077308;28;20451;-69
2024/04/04 07:12:32;;;;;;;4.97;4.47;;;;;;;;;;5078945;28;21192;-72
2024/04/04 07:14:59;;;;;;;4.60;4.20;;;;;;;;;;5080868;28;20816;-67
2024/04/04 07:17:28;;;;;;;3.93;3.50;;;;;;;;;;5085114;28;20535;-71
2024/04/04 07:19:55;;;;;;;6.57;4.47;;;;;;;;;;5078418;28;20490;-69
2024/04/04 07:22:20;;;;;;;6.73;3.97;;;;;;;;;;5072817;28;20460;-69
2024/04/04 07:24:49;;;;;;;4.87;4.50;;;;;;;;;;5076748;28;20459;-70
2024/04/04 07:27:14;;;;;;;4.57;4.10;;;;;;;;;;5074029;28;20627;-70
2024/04/04 07:29:42;;;;;;;5.80;5.07;;;;;;;;;;5072916;28;20466;-69
2024/04/04 07:32:08;;;;;;;5.53;3.97;;;;;;;;;;5072737;28;20282;-71
2024/04/04 07:34:35;;;;;;;5.33;3.97;;;;;;;;;;5075533;28;20460;-70
2024/04/04 07:37:03;;;;;;;5.30;4.80;;;;;;;;;;5069645;28;20440;-71
2024/04/04 07:39:31;;;;;;;5.03;3.73;;;;;;;;;;5073211;28;20497;-72
2024/04/04 07:41:58;;;;;;;8.60;4.90;;;;;;;;;;5075261;28;20512;-70
2024/04/04 07:44:24;;;;;;;8.37;4.70;;;;;;;;;;5075641;28;20470;-71
2024/04/04 07:46:50;;;;;;;4.23;3.93;;;;;;;;;;5073839;28;20447;-71
2024/04/04 07:49:17;;;;;;;6.87;4.20;;;;;;;;;;5066724;28;20509;-70
2024/04/04 07:51:43;;;;;;;5.30;3.70;;;;;;;;;;5074138;28;20960;-70
2024/04/04 07:54:11;;;;;;;3.63;3.33;;;;;;;;;;5075560;28;20461;-72
2024/04/04 07:56:37;;;;;;;3.67;3.37;;;;;;;;;;5072520;28;20221;-70
2024/04/04 07:59:05;;;;;;;3.47;3.27;;;;;;;;;;5076592;28;20813;-70
2024/04/04 08:01:30;;;;;;;5.63;2.93;;;;;;;;;;5074575;28;20250;-68
2024/04/04 08:03:57;;;;;;;3.80;3.50;;;;;;;;;;5072597;28;20478;-69
2024/04/04 08:06:22;;;;;;;3.10;2.80;;;;;;;;;;5074675;28;20210;-70
2024/04/04 08:08:48;;;;;;;3.20;2.80;;;;;;;;;;5074017;28;20486;-70
2024/04/04 08:11:15;;;;;;;3.90;3.13;;;;;;;;;;5073352;28;20750;-70
2024/04/04 08:13:42;;;;;;;3.43;3.00;;;;;;;;;;5073621;28;20521;-71
2024/04/04 08:16:09;;;;;;;4.00;2.70;;;;;;;;;;5074047;28;20809;-71
2024/04/04 08:18:35;;;;;;;7.87;3.30;;;;;;;;;;5075304;28;20468;-67
2024/04/04 08:21:01;;;;;;;4.23;2.87;;;;;;;;;;5087637;28;20493;-70
2024/04/04 08:23:28;;;;;;;2.90;2.50;;;;;;;;;;5096500;28;20508;-70
2024/04/04 08:25:53;;;;;;;3.77;3.00;;;;;;;;;;5094943;28;20204;-69
2024/04/04 08:28:20;;;;;;;4.43;2.70;;;;;;;;;;5091490;28;20462;-70
2024/04/04 08:30:46;;;;;;;3.20;2.90;;;;;;;;;;5089159;28;20197;-70
2024/04/04 08:33:14;;;;;;;3.47;2.30;;;;;;;;;;5093310;28;20443;-71
2024/04/04 08:35:39;;;;;;;3.50;2.90;;;;;;;;;;5088350;28;20228;-72
2024/04/04 08:38:06;;;;;;;2.73;2.27;;;;;;;;;;5092678;28;20487;-71
2024/04/04 08:40:36;;;;;;;5.00;1.97;;;;;;;;;;5092427;28;20225;-69
2024/04/04 08:43:03;;;;;;;3.20;2.50;;;;;;;;;;5089098;28;20458;-68
2024/04/04 08:45:31;;;;;;;3.60;2.57;;;;;;;;;;5097497;28;20449;-68
2024/04/04 08:47:59;;;;;;;4.83;2.60;;;;;;;;;;5092128;28;21149;-71
2024/04/04 08:50:26;;;;;;;4.93;2.50;;;;;;;;;;5095175;28;20447;-71
2024/04/04 08:52:52;;;;;;;2.63;2.37;;;;;;;;;;5084981;28;20440;-71
2024/04/04 08:55:19;;;;;;;3.27;2.40;;;;;;;;;;5083943;28;20993;-71
2024/04/04 08:57:45;;;;;;;2.50;2.30;;;;;;;;;;5084973;28;20681;-70
2024/04/04 09:00:11;;;;;;;6.03;2.80;;;;;;;;;;5087737;28;20214;-71
2024/04/04 09:02:38;;;;;;;2.30;2.10;;;;;;;;;;5091705;28;20508;-71
2024/04/04 09:05:03;;;;;;;3.20;2.57;;;;;;;;;;5094393;28;20447;-71
2024/04/04 09:07:31;;;;;;;2.63;2.40;;;;;;;;;;5090968;28;20920;-72
2024/04/04 09:09:57;;;;;;;2.53;2.33;;;;;;;;;;5096042;28;20227;-71
2024/04/04 09:12:23;;;;;;;2.50;2.20;;;;;;;;;;5092144;28;20435;-68
2024/04/04 09:14:55;;;;;;;4.37;2.23;;;;;;;;;;5085582;28;20598;-72
2024/04/04 09:17:22;;;;;;;2.47;2.20;;;;;;;;;;5091688;28;20467;-71
2024/04/04 09:19:53;;;;;;;3.53;2.57;;;;;;;;;;5096637;28;20519;-71
2024/04/04 09:22:19;;;;;;;3.03;2.40;;;;;;;;;;5068683;28;20827;-71
2024/04/04 09:24:46;;;;;;;3.00;2.70;;;;;;;;;;5077517;28;20488;-71
2024/04/04 09:27:18;;;;;;;3.10;1.90;;;;;;;;;;5074348;28;21087;-70
2024/04/04 09:29:44;;;;;;;2.30;2.10;;;;;;;;;;5066777;28;21172;-71
2024/04/04 09:32:11;;;;;;;3.30;2.60;;;;;;;;;;5069930;28;20459;-69
2024/04/04 09:34:37;;;;;;;3.20;2.30;;;;;;;;;;5077229;28;20464;-70
2024/04/04 09:37:05;;;;;;;3.53;2.13;;;;;;;;;;5072857;28;20452;-70
2024/04/04 09:39:31;;;;;;;2.10;1.63;;;;;;;;;;5074398;28;20466;-69
2024/04/04 09:42:00;;;;;;;1.40;1.20;;;;;;;;;;5075916;28;20479;-70
2024/04/04 09:44:25;;;;;;;2.20;1.03;;;;;;;;;;5071262;28;20513;-71
2024/04/04 09:46:52;;;;;;;1.63;1.00;;;;;;;;;;5071986;28;20453;-70
2024/04/04 09:49:19;;;;;;;3.17;0.90;;;;;;;;;;5073464;28;20210;-71
2024/04/04 09:51:46;;;;;;;3.70;1.00;;;;;;;;;;5073244;28;21420;-68
2024/04/04 09:54:13;;;;;;;1.90;0.60;;;;;;;;;;5072937;28;20555;-71
2024/04/04 09:56:40;;;;;;;0.93;0.80;;;;;;;;;;5075036;28;20539;-69
2024/04/04 09:59:08;;;;;;;0.80;0.80;;;;;;;;;;5071717;28;20450;-70
2024/04/04 10:01:34;;;;;;;1.30;1.20;;;;;;;;;;5072483;28;20498;-70
2024/04/04 10:04:02;;;;;;;2.10;1.10;;;;;;;;;;5075526;28;20441;-70
2024/04/04 10:06:28;;;;;;;1.27;1.07;;;;;;;;;;5071746;28;20444;-70
2024/04/04 10:08:55;;;;;;;1.67;1.10;;;;;;;;;;5070528;28;20459;-70
2024/04/04 10:11:30;;;;;;;1.00;1.00;;;;;;;;;;5079887;28;20501;-70
2024/04/04 10:14:00;;;;;;;0.97;0.97;;;;;;;;;;5074948;28;20459;-69
2024/04/04 10:16:33;;;;;;;1.67;1.50;;;;;;;;;;5068711;28;20464;-72
2024/04/04 10:19:09;;;;;;;1.10;1.00;;;;;;;;;;5072195;28;20463;-72
2024/04/04 10:21:34;;;;;;;1.80;1.20;;;;;;;;;;5072821;28;20526;-71
2024/04/04 10:24:01;;;;;;;1.20;1.10;;;;;;;;;;5068976;28;20455;-66
2024/04/04 10:26:26;;;;;;;3.87;1.60;;;;;;;;;;5071018;28;20229;-67
2024/04/04 10:28:53;;;;;;;1.20;1.13;;;;;;;;;;5063587;28;20455;-68
2024/04/04 10:31:18;;;;;;;1.80;1.70;;;;;;;;;;5069334;28;20206;-67
2024/04/04 10:33:46;;;;;;;1.60;1.13;;;;;;;;;;5073906;28;20448;-68
2024/04/04 10:36:12;;;;;;;1.77;1.67;;;;;;;;;;5074602;28;20247;-69
2024/04/04 10:38:38;;;;;;;1.50;1.40;;;;;;;;;;5060734;28;20456;-67
2024/04/04 10:41:04;;;;;;;1.30;1.20;;;;;;;;;;5074534;28;20710;-69
2024/04/04 10:43:39;;;;;;;2.93;1.20;;;;;;;;;;5076360;28;20468;-67
2024/04/04 10:46:04;;;;;;;1.50;1.40;;;;;;;;;;5075614;28;20250;-68
2024/04/04 10:48:31;;;;;;;1.40;1.30;;;;;;;;;;5076223;28;20456;-69
2024/04/04 10:50:58;;;;;;;2.07;1.10;;;;;;;;;;5076049;28;20214;-69
2024/04/04 10:53:25;;;;;;;1.50;1.40;;;;;;;;;;5077478;28;20460;-68
2024/04/04 10:55:51;;;;;;;2.87;1.57;;;;;;;;;;5075989;28;20495;-69
2024/04/04 10:58:18;;;;;;;1.83;1.70;;;;;;;;;;5072265;28;20953;-68
2024/04/04 11:00:43;;;;;;;2.63;2.43;;;;;;;;;;5075628;28;20209;-68
2024/04/04 11:03:13;;;;;;;3.40;2.60;;;;;;;;;;5074015;28;20509;-69
2024/04/04 11:05:40;;;;;;;3.00;2.80;;;;;;;;;;5072163;28;20358;-68
2024/04/04 11:08:09;;;;;;;3.67;3.33;;;;;;;;;;5083133;28;20455;-65
2024/04/04 11:10:39;;;;;;;3.87;3.43;;;;;;;;;;5074444;28;21108;-70
2024/04/04 11:13:05;;;;;;;4.77;4.07;;;;;;;;;;5072837;28;20451;-69
2024/04/04 11:15:31;;;;;;;3.53;3.23;;;;;;;;;;5071450;28;20961;-72
2024/04/04 11:17:58;;;;;;;3.43;3.23;;;;;;;;;;5074875;28;20535;-67
2024/04/04 11:20:24;;;;;;;5.10;3.70;;;;;;;;;;5071229;28;20237;-71
2024/04/04 11:22:52;;;;;;;3.27;3.07;;;;;;;;;;5086686;28;20491;-72
2024/04/04 11:25:20;;;;;;;5.40;4.37;;;;;;;;;;5088002;28;20463;-72
2024/04/04 11:27:46;;;;;;;3.90;3.70;;;;;;;;;;5093686;28;20547;-73
2024/04/04 11:30:14;;;;;;;3.90;3.70;;;;;;;;;;5095426;28;20485;-72
2024/04/04 11:32:40;;;;;;;4.00;3.70;;;;;;;;;;5095424;28;20455;-73
2024/04/04 11:35:08;;;;;;;4.10;3.80;;;;;;;;;;5094200;28;20474;-69
2024/04/04 11:37:34;;;;;;;3.57;3.37;;;;;;;;;;5094313;28;20462;-78
2024/04/04 11:40:00;;;;;;;4.40;4.00;;;;;;;;;;5093199;28;20934;-72
2024/04/04 11:42:28;;;;;;;4.07;3.77;;;;;;;;;;5092593;28;20490;-72
2024/04/04 11:44:53;;;;;;;4.70;4.40;;;;;;;;;;5094185;28;20212;-72
2024/04/04 11:47:20;;;;;;;4.57;4.27;;;;;;;;;;5100338;28;20505;-70
2024/04/04 11:49:45;;;;;;;5.10;4.70;;;;;;;;;;5094712;28;20209;-71
2024/04/04 11:52:12;;;;;;;4.70;3.97;;;;;;;;;;5098796;28;20881;-74
2024/04/04 11:54:37;;;;;;;4.80;4.60;;;;;;;;;;5097034;28;20214;-70
2024/04/04 11:57:04;;;;;;;4.37;4.07;;;;;;;;;;5102925;28;20475;-72
2024/04/04 11:59:31;;;;;;;4.60;4.30;;;;;;;;;;5097026;28;20209;-71
2024/04/04 12:01:57;;;;;;;4.00;3.80;;;;;;;;;;5094843;28;20492;-70
2024/04/04 12:04:23;;;;;;;7.27;4.67;;;;;;;;;;5094131;28;20482;-72
2024/04/04 12:06:50;;;;;;;4.13;3.83;;;;;;;;;;5094625;28;20447;-72
2024/04/04 12:09:16;;;;;;;4.07;3.67;;;;;;;;;;5092416;28;20266;-70
2024/04/04 12:11:43;;;;;;;3.80;3.50;;;;;;;;;;5092698;28;20538;-72
2024/04/04 12:14:09;;;;;;;4.10;3.90;;;;;;;;;;5101341;28;20518;-69
2024/04/04 12:16:39;;;;;;;4.73;4.37;;;;;;;;;;5093797;28;20500;-71
2024/04/04 12:21:49;;;;;;;4.23;4.03;;;;;;;;;;5077120;28;20894;-71
2024/04/04 12:24:16;;;;;;;4.73;4.43;;;;;;;;;;5074216;28;20486;-71
2024/04/04 12:26:43;;;;;;;4.83;4.43;;;;;;;;;;5074346;28;20959;-71
2024/04/04 12:29:08;;;;;;;5.40;5.00;;;;;;;;;;5076602;28;20459;-73
2024/04/04 12:31:37;;;;;;;4.33;4.03;;;;;;;;;;5074562;28;20440;-72
2024/04/04 12:34:03;;;;;;;3.70;3.50;;;;;;;;;;5074518;28;20678;-69
2024/04/04 12:36:29;;;;;;;3.87;3.57;;;;;;;;;;5073283;28;20530;-69
2024/04/04 12:38:55;;;;;;;4.60;4.30;;;;;;;;;;5071003;28;20715;-72
2024/04/04 12:41:21;;;;;;;4.53;4.23;;;;;;;;;;5072198;28;20500;-71
2024/04/04 12:43:47;;;;;;;4.50;4.30;;;;;;;;;;5076649;28;20200;-70
2024/04/04 12:46:14;;;;;;;4.70;4.20;;;;;;;;;;5079216;28;21012;-70
2024/04/04 12:48:44;;;;;;;4.90;4.53;;;;;;;;;;5081390;28;20421;-70
2024/04/04 12:51:11;;;;;;;4.80;4.47;;;;;;;;;;5078650;28;20567;-69
2024/04/04 12:53:39;;;;;;;3.80;3.60;;;;;;;;;;5074967;28;20452;-73
2024/04/04 12:56:06;;;;;;;4.60;4.30;;;;;;;;;;5076326;28;20449;-72
2024/04/04 12:58:31;;;;;;;5.17;4.70;;;;;;;;;;5073680;28;20503;-72
2024/04/04 13:00:59;;;;;;;5.07;4.67;;;;;;;;;;5071435;28;21025;-71
2024/04/04 13:03:26;;;;;;;4.20;3.90;;;;;;;;;;5072351;28;20237;-69
2024/04/04 13:05:55;;;;;;;4.87;4.33;;;;;;;;;;5076876;28;20450;-72
2024/04/04 13:08:20;;;;;;;4.80;4.40;;;;;;;;;;5075826;28;20463;-72
2024/04/04 13:10:47;;;;;;;4.83;4.43;;;;;;;;;;5072962;28;20471;-72
2024/04/04 13:13:12;;;;;;;4.70;4.40;;;;;;;;;;5072654;28;20201;-72
2024/04/04 13:15:39;;;;;;;5.67;5.17;;;;;;;;;;5072186;28;20457;-72
2024/04/04 13:18:04;;;;;;;5.57;5.20;;;;;;;;;;5076575;28;20208;-70
2024/04/04 13:20:32;;;;;;;5.10;4.80;;;;;;;;;;5076817;28;20483;-73
2024/04/04 13:22:59;;;;;;;4.90;4.50;;;;;;;;;;5076655;28;20225;-72
2024/04/04 13:25:26;;;;;;;5.17;4.67;;;;;;;;;;5088827;28;20916;-71
2024/04/04 13:27:51;;;;;;;7.33;5.20;;;;;;;;;;5073909;28;20468;-72
2024/04/04 13:30:18;;;;;;;5.00;4.67;;;;;;;;;;5077159;28;20606;-72
2024/04/04 13:32:43;;;;;;;4.77;4.50;;;;;;;;;;5079518;28;20223;-72
2024/04/04 13:35:10;;;;;;;5.10;4.87;;;;;;;;;;5073131;28;20459;-70
2024/04/04 13:37:35;;;;;;;4.70;4.40;;;;;;;;;;5076322;28;20206;-71
2024/04/04 13:40:08;;;;;;;5.17;4.83;;;;;;;;;;5072301;28;20452;-69
2024/04/04 13:42:33;;;;;;;5.00;4.70;;;;;;;;;;5072262;28;20218;-70
2024/04/04 13:45:00;;;;;;;4.90;4.50;;;;;;;;;;5077179;28;20456;-69
2024/04/04 13:47:25;;;;;;;7.50;4.30;;;;;;;;;;5071637;28;20679;-71
2024/04/04 13:49:52;;;;;;;5.30;4.93;;;;;;;;;;5078922;28;20501;-70
2024/04/04 13:52:18;;;;;;;7.77;5.50;;;;;;;;;;5083266;28;20236;-71
2024/04/04 13:54:46;;;;;;;5.53;5.00;;;;;;;;;;5071206;28;20448;-71
2024/04/04 13:57:13;;;;;;;7.37;5.07;;;;;;;;;;5076654;28;20607;-71
2024/04/04 13:59:40;;;;;;;5.80;5.10;;;;;;;;;;5081922;28;20509;-77
2024/04/04 14:02:09;;;;;;;5.60;5.30;;;;;;;;;;5070022;28;20515;-69
2024/04/04 14:04:36;;;;;;;4.73;4.43;;;;;;;;;;5074530;28;20531;-70
2024/04/04 14:07:03;;;;;;;5.23;4.83;;;;;;;;;;5078306;28;20482;-68
2024/04/04 14:09:30;;;;;;;4.87;4.30;;;;;;;;;;5082482;28;20448;-69
2024/04/04 14:11:55;;;;;;;5.13;4.83;;;;;;;;;;5080169;28;20436;-70
2024/04/04 14:14:23;;;;;;;6.97;4.73;;;;;;;;;;5084711;28;20537;-68
2024/04/04 14:16:48;;;;;;;6.00;5.50;;;;;;;;;;5087795;28;20197;-72
2024/04/04 14:19:17;;;;;;;6.23;5.50;;;;;;;;;;5077979;28;20788;-72
2024/04/04 14:21:43;;;;;;;4.77;4.47;;;;;;;;;;5080382;28;20240;-69
2024/04/04 14:24:09;;;;;;;5.70;5.20;;;;;;;;;;5078845;28;20804;-71
2024/04/04 14:26:35;;;;;;;5.33;5.00;;;;;;;;;;5073286;28;20231;-71
2024/04/04 14:29:02;;;;;;;5.53;5.23;;;;;;;;;;5073777;28;20461;-71
2024/04/04 14:31:29;;;;;;;6.47;6.07;;;;;;;;;;5078447;28;20212;-72
2024/04/04 14:33:55;;;;;;;5.60;5.10;;;;;;;;;;5082671;28;20633;-71
2024/04/04 14:36:21;;;;;;;9.57;5.30;;;;;;;;;;5074482;28;20456;-70
2024/04/04 14:38:47;;;;;;;5.10;4.70;;;;;;;;;;5074805;28;20498;-69
2024/04/04 14:41:13;;;;;;;5.43;5.00;;;;;;;;;;5079450;28;20202;-71